Messwerte Davao

Temperatur

Temperatur
°C
1594620000 14.00 14.00 32
1594623600 15.00 15.00 32
1594627200 16.00 16.00 30
1594630800 17.00 17.00 30
1594634400 18.00 18.00
1594638000 19.00 19.00 29
1594641600 20.00 20.00 28
1594645200 21.00 21.00 28
1594648800 22.00 22.00 28
1594652400 23.00 23.00
1594656000 0.00 0.00
1594659600 1.00 1.00
1594663200 2.00 2.00
1594666800 3.00 3.00
1594670400 4.00 4.00
1594674000 5.00 5.00
1594677600 6.00 6.00 25
1594681200 7.00 7.00 27
1594684800 8.00 8.00 29
1594688400 9.00 9.00 31
1594692000 10.00 10.00 30
1594695600 11.00 11.00 32
1594699200 12.00 12.00 31
1594702800 13.00 13.00 31

Aktuellste Messwerte

Wettercharakter
Wetter: wechselnd bewölkt
Temperatur
31 °C
Feuchtigkeit
65 %
Wind
15 km/hWindrichtung: Süd
Luftdruck
1008 hPa
Messzeit: 14. Juli 2020, 13.00Datenquelle: METAR

Weitere Messstationen in der Nähe

Messstation Temperatur Entfernung
Dumaguete - 354 km
Zamboanga - 396 km

Wind

Windrichtung Böen Mittelwind
° km/h km/h
1594620000 14.00 13.00 - 14.00 190° 20
1594623600 15.00 14.00 - 15.00 200° 20
1594627200 16.00 15.00 - 16.00 190° 15
1594630800 17.00 16.00 - 17.00 190° 20
1594634400 18.00 17.00 - 18.00
1594638000 19.00 18.00 - 19.00 180° 15
1594641600 20.00 19.00 - 20.00 160° 15
1594645200 21.00 20.00 - 21.00 170° 15
1594648800 22.00 21.00 - 22.00 150° 10
1594652400 23.00 22.00 - 23.00
1594656000 0.00 23.00 - 0.00
1594659600 1.00 0.00 - 1.00
1594663200 2.00 1.00 - 2.00
1594666800 3.00 2.00 - 3.00
1594670400 4.00 3.00 - 4.00
1594674000 5.00 4.00 - 5.00
1594677600 6.00 5.00 - 6.00 5
1594681200 7.00 6.00 - 7.00 350° 5
1594684800 8.00 7.00 - 8.00 5
1594688400 9.00 8.00 - 9.00 5
1594692000 10.00 9.00 - 10.00 170° 5
1594695600 11.00 10.00 - 11.00 150° 15
1594699200 12.00 11.00 - 12.00 170° 5
1594702800 13.00 12.00 - 13.00 160° 15

Ihre Wetterstation

Fehlt Ihre Wetterstation auf unserem Portal?

Schreiben Sie an network@meteonews.ch

Klima

Wann ist es am wärmsten? Wann regnet es am wenigsten? Unsere Klimadaten geben Auskunft.